Time;durP1;ratioP1;P1;durP2;ratioP2;P2;SDS_P1;SDS_P2;PMS_P1;PMS_P2;Temp;Humidity;BMP_temperature;BMP_pressure;BME280_temperature;BME280_humidity;BME280_pressure;Samples;Min_cycle;Max_cycle;Signal;HPM_P1;HPM_P2
2022/07/26 05:06:15;;;;;;;;;1.00;1.00;;;;;24.20;48.68;101510.06;5093545;27;46693;-77
2022/07/26 05:08:42;;;;;;;;;2.00;2.00;;;;;24.26;48.60;101514.00;5093704;27;45830;-76
2022/07/26 05:11:07;;;;;;;;;2.67;2.67;;;;;24.38;48.20;101518.19;5098022;27;45560;-77
2022/07/26 05:13:32;;;;;;;;;1.00;1.00;;;;;24.56;48.58;101526.31;5097637;27;45475;-77
2022/07/26 05:15:58;;;;;;;;;1.67;1.67;;;;;24.79;48.33;101524.94;5095126;27;45484;-78
2022/07/26 05:18:24;;;;;;;;;1.33;1.33;;;;;25.06;48.07;101525.84;5100603;27;45580;-78
2022/07/26 05:20:50;;;;;;;;;1.00;1.00;;;;;25.30;47.51;101525.13;5090961;27;45458;-78
2022/07/26 05:23:15;;;;;;;;;1.67;1.67;;;;;25.53;46.71;101519.13;5100378;27;45589;-78
2022/07/26 05:25:41;;;;;;;;;1.00;1.00;;;;;25.74;46.30;101518.75;5089964;27;46201;-78
2022/07/26 05:28:06;;;;;;;;;2.33;2.33;;;;;25.92;45.98;101526.78;5089345;27;45447;-77
2022/07/26 05:30:31;;;;;;;;;4.00;3.00;;;;;26.12;46.06;101529.19;5091651;27;45773;-77
2022/07/26 05:32:57;;;;;;;;;1.00;1.00;;;;;26.26;45.37;101519.56;5089573;27;45526;-77
2022/07/26 05:35:22;;;;;;;;;1.33;1.33;;;;;26.40;45.00;101522.66;5090966;27;46236;-81
2022/07/26 05:37:47;;;;;;;;;1.00;1.00;;;;;26.55;44.60;101517.34;5095639;27;45544;-79
2022/07/26 05:40:13;;;;;;;;;3.33;3.00;;;;;26.68;44.47;101520.41;5099005;27;45746;-82
2022/07/26 05:42:38;;;;;;;;;2.00;2.00;;;;;26.80;44.31;101512.75;5088114;27;46199;-83
2022/07/26 05:45:05;;;;;;;;;1.00;1.00;;;;;26.91;43.95;101514.28;5052664;28;45576;-83
2022/07/26 05:47:30;;;;;;;;;1.00;1.00;;;;;27.02;43.75;101510.34;5053495;28;45484;-81
2022/07/26 05:49:55;;;;;;;;;1.33;1.00;;;;;27.13;43.36;101519.19;5058311;28;47374;-79
2022/07/26 05:52:21;;;;;;;;;2.67;2.67;;;;;27.19;43.39;101519.34;5060226;28;45508;-78
2022/07/26 05:54:46;;;;;;;;;1.00;1.00;;;;;27.26;43.52;101516.75;5054011;28;45567;-79
2022/07/26 05:57:12;;;;;;;;;1.67;1.67;;;;;27.32;43.48;101517.94;5058810;28;45885;-79
2022/07/26 05:59:37;;;;;;;;;5.00;2.00;;;;;27.40;42.74;101519.78;5052596;28;45563;-79
2022/07/26 06:02:02;;;;;;;;;2.00;2.00;;;;;27.46;43.08;101522.66;5064074;28;45474;-79
2022/07/26 06:04:28;;;;;;;;;2.00;2.00;;;;;27.49;43.04;101525.03;5067423;28;45951;-79
2022/07/26 06:06:54;;;;;;;;;30.25;30.00;;;;;27.54;42.77;101529.94;5059612;28;45750;-78
2022/07/26 06:09:19;;;;;;;;;12.00;11.33;;;;;27.58;42.92;101536.75;5060766;27;45510;-78
2022/07/26 06:11:45;;;;;;;;;5.00;5.00;;;;;27.61;42.81;101536.44;5067409;27;45566;-78
2022/07/26 06:14:10;;;;;;;;;2.67;2.67;;;;;27.64;42.09;101534.38;5068657;28;45539;-84
2022/07/26 06:16:35;;;;;;;;;1.67;1.67;;;;;27.64;42.20;101537.97;5059863;28;45550;-84
2022/07/26 06:19:01;;;;;;;;;2.00;2.00;;;;;27.62;41.74;101540.84;5045913;28;45545;-86
2022/07/26 06:21:26;;;;;;;;;1.67;1.67;;;;;27.61;42.36;101535.56;5052252;28;45426;-81
2022/07/26 06:23:52;;;;;;;;;1.00;1.00;;;;;27.60;43.18;101537.47;5047256;28;54669;-80
2022/07/26 06:26:17;;;;;;;;;2.00;1.67;;;;;27.59;43.10;101545.78;5046709;28;45706;-82
2022/07/26 06:28:42;;;;;;;;;2.00;2.00;;;;;27.58;42.84;101552.25;5044673;28;45322;-83
2022/07/26 06:31:08;;;;;;;;;2.00;2.00;;;;;27.58;42.29;101553.09;5045981;28;45575;-83
2022/07/26 06:33:34;;;;;;;;;2.00;2.00;;;;;27.60;42.29;101551.09;5051864;28;46187;-82
2022/07/26 06:35:59;;;;;;;;;3.33;3.33;;;;;27.62;42.51;101556.34;5049375;28;45412;-82
2022/07/26 06:38:25;;;;;;;;;2.00;2.00;;;;;27.68;42.80;101557.53;5050974;28;45456;-82
2022/07/26 06:40:50;;;;;;;;;1.00;0.67;;;;;27.69;42.47;101557.38;5048648;28;45503;-83
2022/07/26 06:43:15;;;;;;;;;2.00;0.67;;;;;27.72;42.17;101557.00;5050637;28;53002;-78
2022/07/26 06:45:41;;;;;;;;;2.00;2.00;;;;;27.73;41.86;101561.44;5041248;28;46897;-79
2022/07/26 06:48:06;;;;;;;;;3.00;2.00;;;;;27.78;42.44;101551.88;5042563;28;45388;-75
2022/07/26 06:50:31;;;;;;;;;2.67;2.67;;;;;27.80;42.21;101550.66;5044026;28;45416;-76
2022/07/26 06:52:57;;;;;;;;;3.00;3.00;;;;;27.83;41.81;101552.19;5041063;28;46036;-77
2022/07/26 06:55:22;;;;;;;;;3.00;1.33;;;;;27.85;41.90;101545.53;5048397;28;45715;-77
2022/07/26 06:57:48;;;;;;;;;3.00;3.00;;;;;27.87;41.55;101551.63;5055393;28;45331;-77
2022/07/26 07:00:14;;;;;;;;;1.00;1.00;;;;;27.90;41.85;101557.78;5041473;28;45713;-83
2022/07/26 07:02:39;;;;;;;;;2.00;2.00;;;;;27.91;41.55;101554.03;5048361;28;45483;-82
2022/07/26 07:05:05;;;;;;;;;2.00;2.00;;;;;27.92;41.92;101553.84;5054177;28;45456;-85
2022/07/26 07:07:30;;;;;;;;;2.00;2.00;;;;;27.94;41.83;101559.97;5048662;28;47553;-79
2022/07/26 07:09:55;;;;;;;;;2.33;1.00;;;;;27.95;40.99;101549.91;5047183;28;45605;-86
2022/07/26 07:12:21;;;;;;;;;2.00;2.00;;;;;27.99;41.76;101553.94;5047444;28;46209;-80
2022/07/26 07:14:46;;;;;;;;;2.00;2.00;;;;;27.98;41.60;101553.13;5036927;28;45715;-86
2022/07/26 07:17:12;;;;;;;;;3.00;3.00;;;;;28.02;41.08;101556.34;5055361;28;45479;-80
2022/07/26 07:19:38;;;;;;;;;2.33;2.00;;;;;28.06;41.48;101554.09;5049145;28;45390;-88
2022/07/26 07:22:04;;;;;;;;;6.00;3.33;;;;;28.07;41.06;101556.63;5043785;28;46260;-80
2022/07/26 07:24:30;;;;;;;;;2.00;2.00;;;;;28.08;41.04;101560.22;5037864;28;45319;-87
2022/07/26 07:26:55;;;;;;;;;3.67;3.33;;;;;28.10;41.21;101560.88;5039273;28;45472;-83
2022/07/26 07:29:20;;;;;;;;;4.33;2.67;;;;;28.12;41.87;101558.84;5040133;28;45552;-82
2022/07/26 07:31:46;;;;;;;;;2.00;2.00;;;;;28.13;41.86;101552.34;5039467;28;46729;-80
2022/07/26 07:34:14;;;;;;;;;2.67;2.67;;;;;28.18;41.74;101555.38;5047203;28;45511;-86
2022/07/26 07:36:40;;;;;;;;;2.67;2.33;;;;;28.20;41.14;101557.94;5042392;28;45455;-84
2022/07/26 07:39:05;;;;;;;;;3.67;3.67;;;;;28.21;41.30;101552.31;5047474;28;45429;-83
2022/07/26 07:41:33;;;;;;;;;3.00;3.00;;;;;28.24;41.15;101556.56;5051557;28;45536;-79
2022/07/26 07:43:59;;;;;;;;;3.67;3.67;;;;;28.26;41.71;101560.84;5050448;28;45512;-87
2022/07/26 07:46:24;;;;;;;;;2.00;2.00;;;;;28.30;41.73;101555.84;5043084;28;45444;-82
2022/07/26 07:48:49;;;;;;;;;6.33;4.00;;;;;28.32;41.46;101561.13;5039393;28;45397;-86
2022/07/26 07:51:15;;;;;;;;;6.67;5.00;;;;;28.35;41.78;101558.88;5041367;28;46051;-79
2022/07/26 07:53:40;;;;;;;;;2.00;2.00;;;;;28.34;41.51;101556.34;5042603;28;45317;-80
2022/07/26 07:56:06;;;;;;;;;3.00;3.00;;;;;28.35;41.26;101547.97;5039260;28;45330;-80
2022/07/26 07:58:31;;;;;;;;;4.00;3.00;;;;;28.38;40.63;101554.94;5038655;28;45635;-80
2022/07/26 08:00:56;;;;;;;;;2.33;2.33;;;;;28.38;40.91;101563.13;5039768;28;46136;-82
2022/07/26 08:03:22;;;;;;;;;4.00;2.67;;;;;28.39;40.81;101562.09;5038929;28;46750;-84
2022/07/26 08:05:48;;;;;;;;;2.00;2.00;;;;;28.40;41.44;101551.00;5040718;28;45541;-82
2022/07/26 08:08:15;;;;;;;;;4.67;3.00;;;;;28.45;41.28;101558.66;5038358;28;45562;-85
2022/07/26 08:10:40;;;;;;;;;4.00;2.00;;;;;28.51;40.62;101559.78;5040698;28;46390;-80
2022/07/26 08:13:06;;;;;;;;;1.33;1.33;;;;;28.56;41.65;101560.09;5036268;28;47358;-83
2022/07/26 08:15:31;;;;;;;;;2.67;2.67;;;;;28.60;40.81;101561.41;5040638;28;47953;-85
2022/07/26 08:17:56;;;;;;;;;3.33;1.67;;;;;28.67;41.08;101562.41;5038027;28;45435;-82
2022/07/26 08:20:22;;;;;;;;;5.00;3.00;;;;;28.75;41.24;101564.19;5040646;28;45439;-84
2022/07/26 08:22:47;;;;;;;;;2.00;2.00;;;;;28.76;41.00;101557.69;5039077;28;45451;-79
2022/07/26 08:25:12;;;;;;;;;3.00;3.00;;;;;28.86;40.96;101578.44;5038681;28;45509;-83
2022/07/26 08:27:38;;;;;;;;;2.33;2.33;;;;;28.89;41.16;101578.13;5039082;28;45505;-78
2022/07/26 08:30:04;;;;;;;;;4.00;2.33;;;;;28.93;41.04;101572.09;5038052;28;45561;-78
2022/07/26 08:32:30;;;;;;;;;5.00;4.00;;;;;28.99;41.04;101572.38;5029710;28;45601;-78
2022/07/26 08:34:55;;;;;;;;;2.67;2.67;;;;;29.01;40.60;101573.88;5039998;28;47164;-78
2022/07/26 08:37:21;;;;;;;;;3.00;3.00;;;;;29.09;40.98;101567.47;5040986;28;45506;-79
2022/07/26 08:39:47;;;;;;;;;3.00;3.00;;;;;29.13;40.91;101579.75;5037858;28;46289;-80
2022/07/26 08:42:17;;;;;;;;;2.00;2.00;;;;;29.17;41.26;101581.06;5039035;28;47328;-79
2022/07/26 08:44:44;;;;;;;;;2.67;2.00;;;;;29.21;40.90;101587.00;5027657;28;45472;-85
2022/07/26 08:47:14;;;;;;;;;3.00;3.00;;;;;29.25;41.25;101580.13;5035988;28;45485;-85
2022/07/26 08:49:41;;;;;;;;;3.00;3.00;;;;;29.29;40.83;101581.47;5044980;28;47002;-86
2022/07/26 08:52:08;;;;;;;;;4.00;2.67;;;;;29.32;40.81;101578.38;5045355;28;45731;-84
2022/07/26 08:54:34;;;;;;;;;2.00;2.00;;;;;29.36;40.82;101578.84;5040901;28;45399;-87
2022/07/26 08:57:00;;;;;;;;;4.33;4.33;;;;;29.38;40.58;101581.38;5036207;28;45532;-85
2022/07/26 08:59:25;;;;;;;;;3.67;3.33;;;;;29.40;40.71;101582.88;5038396;28;45703;-82
2022/07/26 09:01:51;;;;;;;;;2.67;2.67;;;;;29.44;40.95;101581.47;5039295;28;45721;-82
2022/07/26 09:04:18;;;;;;;;;2.67;2.33;;;;;29.45;40.94;101583.16;5037031;28;45469;-82
2022/07/26 09:06:54;;;;;;;;;3.67;3.67;;;;;29.46;40.96;101582.13;5042906;28;45464;-83
2022/07/26 09:09:19;;;;;;;;;2.00;2.00;;;;;29.51;41.12;101597.16;5039775;28;45521;-81
2022/07/26 09:11:44;;;;;;;;;3.33;3.00;;;;;29.51;40.51;101580.75;5047990;28;48219;-82
2022/07/26 09:14:09;;;;;;;;;4.00;3.00;;;;;29.55;40.82;101593.00;5019435;28;46857;-83
2022/07/26 09:16:35;;;;;;;;;7.00;5.00;;;;;29.57;40.82;101590.91;5036896;28;45512;-82
2022/07/26 09:19:23;;;;;;;;;3.00;3.00;;;;;29.61;40.63;101596.84;5045039;28;47440;-84
2022/07/26 09:21:49;;;;;;;;;5.00;4.00;;;;;29.62;40.70;101596.66;5036510;28;45719;-82
2022/07/26 09:24:36;;;;;;;;;3.00;3.00;;;;;29.65;40.48;101598.16;5045374;28;45463;-86
2022/07/26 09:27:06;;;;;;;;;3.33;3.33;;;;;29.66;40.96;101598.00;5044916;28;45384;-83
2022/07/26 09:29:42;;;;;;;;;3.00;3.00;;;;;29.68;40.71;101595.06;5043159;28;45742;-82
2022/07/26 09:32:15;;;;;;;;;3.67;3.67;;;;;29.68;40.69;101593.16;5029035;28;45787;-81
2022/07/26 09:34:41;;;;;;;;;3.33;2.00;;;;;29.66;40.85;101589.78;5046275;28;45788;-79
2022/07/26 09:37:07;;;;;;;;;2.67;2.67;;;;;29.70;40.23;101596.56;5044459;28;45557;-81
2022/07/26 09:39:32;;;;;;;;;3.00;3.00;;;;;29.72;40.86;101616.38;5043217;28;47440;-82
2022/07/26 09:42:05;;;;;;;;;2.33;2.33;;;;;29.75;40.86;101606.09;5044264;28;45767;-83
2022/07/26 09:44:30;;;;;;;;;4.67;3.00;;;;;29.76;40.58;101608.66;5041510;28;45404;-79
2022/07/26 09:46:57;;;;;;;;;3.00;3.00;;;;;29.78;40.82;101608.44;5039481;28;45466;-80
2022/07/26 09:49:25;;;;;;;;;3.00;3.00;;;;;29.79;40.81;101608.25;5035196;28;45474;-85
2022/07/26 09:51:53;;;;;;;;;3.33;3.33;;;;;29.81;38.97;101616.28;5036613;28;45469;-83
2022/07/26 09:54:29;;;;;;;;;5.00;3.00;;;;;29.78;39.51;101609.31;5043107;28;45456;-87
2022/07/26 09:56:55;;;;;;;;;10.00;5.67;;;;;29.72;39.07;101619.09;5027308;28;46149;-85
2022/07/26 09:59:22;;;;;;;;;5.67;5.67;;;;;29.70;38.63;101614.88;5049284;28;46299;-82
2022/07/26 10:01:49;;;;;;;;;6.00;5.00;;;;;29.65;39.07;101618.19;5057333;28;46105;-81
2022/07/26 10:04:15;;;;;;;;;5.00;5.00;;;;;29.63;39.12;101613.94;5056537;28;45365;-81
2022/07/26 10:06:41;;;;;;;;;7.67;6.00;;;;;29.59;38.66;101624.41;5053778;28;45808;-82
2022/07/26 10:09:07;;;;;;;;;4.67;4.67;;;;;29.57;38.65;101619.13;5039693;28;45354;-82
2022/07/26 10:11:48;;;;;;;;;4.33;4.00;;;;;29.56;38.79;101617.44;5057327;28;45521;-81
2022/07/26 10:14:31;;;;;;;;;4.00;3.00;;;;;29.53;38.77;101625.16;5055108;28;45446;-82
2022/07/26 10:16:57;;;;;;;;;4.00;4.00;;;;;29.49;38.46;101624.66;5047436;28;45401;-82
2022/07/26 10:19:39;;;;;;;;;3.33;3.33;;;;;29.50;39.04;101617.31;5037550;28;46000;-82
2022/07/26 10:22:32;;;;;;;;;4.00;4.00;;;;;29.45;38.31;101623.31;5048980;28;45641;-83
2022/07/26 10:25:16;;;;;;;;;7.67;6.00;;;;;29.42;38.51;101621.81;5049138;28;45602;-82
2022/07/26 10:27:45;;;;;;;;;3.67;3.00;;;;;29.38;37.61;101614.19;5048958;28;45354;-82
2022/07/26 10:30:22;;;;;;;;;4.00;4.00;;;;;29.36;38.21;101608.91;5050165;28;46139;-82
2022/07/26 10:32:53;;;;;;;;;3.33;3.33;;;;;29.32;38.31;101616.63;5047292;28;45612;-81
2022/07/26 10:35:37;;;;;;;;;5.00;4.00;;;;;29.28;38.58;101617.19;5027370;28;45654;-82
2022/07/26 10:38:05;;;;;;;;;4.00;4.00;;;;;29.25;38.50;101620.28;5043976;28;45383;-82
2022/07/26 10:40:32;;;;;;;;;3.67;3.67;;;;;29.27;38.50;101626.44;5043453;28;46013;-81
2022/07/26 10:43:11;;;;;;;;;3.00;3.00;;;;;29.26;37.82;101619.28;5044573;28;45467;-81
2022/07/26 10:45:37;;;;;;;;;2.67;2.67;;;;;29.27;38.55;101624.56;5039741;28;45564;-83
2022/07/26 10:48:24;;;;;;;;;3.00;3.00;;;;;29.25;37.50;101629.34;5037349;28;45440;-81
2022/07/26 10:50:52;;;;;;;;;2.33;2.33;;;;;29.22;37.88;101618.78;5038367;28;45515;-83
2022/07/26 10:53:26;;;;;;;;;3.00;3.00;;;;;29.21;37.76;101621.72;5033865;28;45478;-82
2022/07/26 10:55:56;;;;;;;;;3.00;3.00;;;;;29.21;37.38;101619.81;5024968;28;45816;-81
2022/07/26 10:58:24;;;;;;;;;4.00;3.00;;;;;29.22;36.89;101621.50;5025464;28;46016;-81
2022/07/26 11:00:53;;;;;;;;;6.00;3.00;;;;;29.21;37.62;101618.97;5035096;28;47284;-82
2022/07/26 11:03:19;;;;;;;;;3.00;3.00;;;;;29.22;37.48;101621.50;5025374;28;45768;-81
2022/07/26 11:05:44;;;;;;;;;3.00;3.00;;;;;29.24;37.75;101619.44;5025397;28;45673;-82
2022/07/26 11:08:09;;;;;;;;;5.00;4.00;;;;;29.25;37.38;101614.81;5027900;28;45558;-80
2022/07/26 11:10:42;;;;;;;;;5.00;3.33;;;;;29.22;37.00;101615.22;5023414;28;46860;-82
2022/07/26 11:13:12;;;;;;;;;3.00;3.00;;;;;29.21;37.52;101611.59;5024488;28;45594;-81
2022/07/26 11:15:46;;;;;;;;;2.67;2.67;;;;;29.22;36.88;101612.47;5025091;28;45512;-81
2022/07/26 11:18:18;;;;;;;;;3.67;3.00;;;;;29.22;37.10;101605.09;5025755;28;45953;-80
2022/07/26 11:20:46;;;;;;;;;1.67;1.67;;;;;29.21;36.73;101606.16;5023531;28;46103;-81
2022/07/26 11:23:30;;;;;;;;;3.00;3.00;;;;;29.22;37.37;101604.28;5025432;28;45691;-81
2022/07/26 11:26:10;;;;;;;;;3.00;3.00;;;;;29.23;37.10;101592.28;5021575;28;45626;-80
2022/07/26 11:28:52;;;;;;;;;3.33;3.00;;;;;29.22;37.17;101598.81;5024099;28;46084;-80
2022/07/26 11:31:20;;;;;;;;;1.00;1.00;;;;;29.20;36.98;101601.72;5023952;28;47009;-79
2022/07/26 11:33:49;;;;;;;;;2.33;2.33;;;;;29.15;37.00;101594.09;5027012;28;45744;-82
2022/07/26 11:36:16;;;;;;;;;2.00;1.33;;;;;29.10;36.20;101585.56;5023707;28;45866;-81
2022/07/26 11:38:47;;;;;;;;;4.00;3.00;;;;;29.02;35.83;101589.25;5023639;28;46087;-79
2022/07/26 11:41:17;;;;;;;;;1.00;1.00;;;;;28.95;36.26;101587.44;5026866;28;45589;-79
2022/07/26 11:43:42;;;;;;;;;1.00;1.00;;;;;28.91;36.75;101592.44;5027871;28;45809;-79
2022/07/26 11:46:07;;;;;;;;;1.00;1.00;;;;;28.90;37.08;101591.56;5023889;28;45745;-80
2022/07/26 11:48:33;;;;;;;;;2.00;2.00;;;;;28.86;36.53;101590.25;5022640;28;45665;-80
2022/07/26 11:51:09;;;;;;;;;3.00;0.67;;;;;28.85;36.94;101585.78;5024305;28;48053;-81
2022/07/26 11:53:38;;;;;;;;;1.00;1.00;;;;;28.83;36.83;101584.28;5025297;28;46914;-80
2022/07/26 11:56:11;;;;;;;;;1.00;1.00;;;;;28.80;36.42;101589.09;5023164;28;47185;-81
2022/07/26 11:58:41;;;;;;;;;1.00;1.00;;;;;28.78;36.92;101590.31;5023029;28;45638;-81
2022/07/26 12:01:08;;;;;;;;;1.00;1.00;;;;;28.77;36.80;101578.50;5029756;28;45499;-81
2022/07/26 12:03:35;;;;;;;;;3.00;1.33;;;;;28.75;37.25;101586.06;5023486;28;45802;-82
2022/07/26 12:06:05;;;;;;;;;1.00;1.00;;;;;28.76;36.97;101595.94;5023914;28;46863;-80
2022/07/26 12:08:47;;;;;;;;;2.00;2.00;;;;;28.76;36.89;101585.00;5010123;28;45793;-80
2022/07/26 12:11:14;;;;;;;;;1.33;1.00;;;;;28.73;36.90;101582.63;5023787;28;46420;-81
2022/07/26 12:13:53;;;;;;;;;1.00;1.00;;;;;28.70;37.05;101573.97;5026838;28;45558;-80
2022/07/26 12:16:37;;;;;;;;;2.00;2.00;;;;;28.66;37.16;101576.22;5025015;28;47556;-79
2022/07/26 12:19:07;;;;;;;;;2.00;2.00;;;;;28.64;37.10;101581.88;5003587;28;45734;-80
2022/07/26 12:21:37;;;;;;;;;7.00;5.00;;;;;28.67;37.46;101576.06;5024518;28;47313;-80
2022/07/26 12:24:03;;;;;;;;;3.67;2.67;;;;;28.70;37.29;101576.72;5020899;28;45999;-79
2022/07/26 12:26:29;;;;;;;;;0.33;0.33;;;;;28.70;37.53;101577.56;5023380;28;46198;-82
2022/07/26 12:28:57;;;;;;;;;2.00;2.00;;;;;28.70;37.17;101574.84;5023455;28;45567;-77
2022/07/26 12:31:30;;;;;;;;;3.33;3.33;;;;;28.69;37.38;101575.84;5024338;28;46916;-80
2022/07/26 12:33:57;;;;;;;;;2.67;2.67;;;;;28.67;37.07;101570.59;5011512;28;45631;-76
2022/07/26 12:36:23;;;;;;;;;1.67;1.67;;;;;28.63;37.70;101569.25;5029181;28;47267;-79
2022/07/26 12:38:51;;;;;;;;;2.00;2.00;;;;;28.64;38.37;101567.34;5023940;28;45715;-78
2022/07/26 12:41:38;;;;;;;;;2.00;2.00;;;;;28.66;38.05;101571.59;5029299;28;47176;-79
2022/07/26 12:44:05;;;;;;;;;2.00;2.00;;;;;28.66;37.29;101573.50;5024784;28;47760;-77
2022/07/26 12:46:34;;;;;;;;;1.33;1.33;;;;;28.66;37.36;101573.50;5025411;28;47233;-77
2022/07/26 12:49:00;;;;;;;;;1.00;1.00;;;;;28.68;38.30;101565.97;5038938;28;45737;-78
2022/07/26 12:51:26;;;;;;;;;3.33;2.00;;;;;28.70;38.14;101563.03;5027967;28;45670;-76
2022/07/26 12:53:51;;;;;;;;;2.00;2.00;;;;;28.70;37.58;101563.91;5020566;28;46775;-77
2022/07/26 12:56:16;;;;;;;;;2.33;2.00;;;;;28.70;37.12;101568.50;5023607;28;45511;-76
2022/07/26 12:58:42;;;;;;;;;2.00;2.00;;;;;28.70;37.17;101563.03;5022073;28;47252;-77
2022/07/26 13:01:07;;;;;;;;;1.67;1.67;;;;;28.66;36.80;101563.41;5025277;28;47036;-78
2022/07/26 13:03:32;;;;;;;;;1.00;1.00;;;;;28.63;37.04;101563.78;5022507;28;46280;-78
2022/07/26 13:05:58;;;;;;;;;2.00;2.00;;;;;28.60;36.79;101549.66;5023067;28;45635;-77
2022/07/26 13:08:23;;;;;;;;;3.00;3.00;;;;;28.58;37.04;101558.03;5024588;28;46737;-78
2022/07/26 13:10:48;;;;;;;;;3.67;2.00;;;;;28.58;37.58;101565.38;5026567;28;46977;-77
2022/07/26 13:13:13;;;;;;;;;3.33;2.00;;;;;28.56;36.63;101551.88;5028390;28;46142;-77
2022/07/26 13:15:39;;;;;;;;;2.00;2.00;;;;;28.52;36.95;101545.94;5023139;28;45556;-78
2022/07/26 13:18:06;;;;;;;;;1.33;1.33;;;;;28.50;36.61;101552.63;5022343;28;45571;-82
2022/07/26 13:20:31;;;;;;;;;1.00;1.00;;;;;28.49;36.77;101549.03;5024765;28;45834;-83
2022/07/26 13:22:57;;;;;;;;;1.00;1.00;;;;;28.49;36.36;101550.94;5035441;28;45499;-82
2022/07/26 13:25:22;;;;;;;;;2.00;2.00;;;;;28.48;37.09;101549.25;5047602;28;45829;-81
2022/07/26 13:27:47;;;;;;;;;3.33;2.00;;;;;28.50;36.50;101542.56;5034962;28;45602;-83
2022/07/26 13:30:13;;;;;;;;;2.00;2.00;;;;;28.54;36.53;101540.31;5027426;28;46257;-85
2022/07/26 13:32:38;;;;;;;;;1.67;1.67;;;;;28.55;36.44;101542.00;5030367;28;45590;-85
2022/07/26 13:35:04;;;;;;;;;1.00;1.00;;;;;28.59;35.81;101535.16;5027149;28;46937;-81
2022/07/26 13:37:29;;;;;;;;;2.00;2.00;;;;;28.60;36.21;101536.00;5059403;28;45503;-82
2022/07/26 13:39:54;;;;;;;;;1.00;1.00;;;;;28.59;35.63;101542.47;5056397;28;46835;-82
2022/07/26 13:42:20;;;;;;;;;2.00;2.00;;;;;28.61;35.58;101533.06;5057859;28;48031;-81
2022/07/26 13:44:45;;;;;;;;;2.00;2.00;;;;;28.63;35.66;101533.75;5050831;28;45385;-80
2022/07/26 13:47:10;;;;;;;;;2.00;2.00;;;;;28.63;35.92;101539.22;5056268;28;45333;-82
2022/07/26 13:49:35;;;;;;;;;1.00;1.00;;;;;28.65;36.12;101534.41;5033202;28;46720;-82
2022/07/26 13:52:02;;;;;;;;;2.00;2.00;;;;;28.67;35.26;101532.34;5012254;28;45995;-82
2022/07/26 13:54:30;;;;;;;;;2.67;2.67;;;;;28.70;35.29;101522.94;5026007;28;46034;-83
2022/07/26 13:56:57;;;;;;;;;3.00;2.00;;;;;28.71;35.43;101527.38;5014921;28;47067;-90
2022/07/26 13:59:23;;;;;;;;;3.00;2.00;;;;;28.70;35.59;101525.66;5026625;28;47048;-84
2022/07/26 14:01:48;;;;;;;;;2.00;2.00;;;;;28.67;35.64;101524.16;5020248;28;45951;-84
2022/07/26 14:04:14;;;;;;;;;2.00;2.00;;;;;28.71;35.72;101526.50;5026709;28;46271;-84
2022/07/26 14:06:39;;;;;;;;;1.00;1.00;;;;;28.73;36.06;101524.44;5032958;28;46825;-79
2022/07/26 14:09:06;;;;;;;;;2.00;2.00;;;;;28.74;35.50;101529.72;5028124;28;46068;-79
2022/07/26 14:11:31;;;;;;;;;1.00;1.00;;;;;28.75;35.47;101523.22;5027791;28;45844;-81
2022/07/26 14:13:57;;;;;;;;;2.00;2.00;;;;;28.75;36.29;101534.16;5026303;28;45703;-81
2022/07/26 14:16:26;;;;;;;;;2.00;2.00;;;;;28.75;35.46;101525.97;5026766;28;47102;-80
2022/07/26 14:18:56;;;;;;;;;2.67;2.67;;;;;28.79;35.41;101534.63;5027425;28;46916;-80
2022/07/26 14:21:22;;;;;;;;;3.00;3.00;;;;;28.79;35.54;101529.16;5025251;28;45674;-81
2022/07/26 14:23:49;;;;;;;;;2.00;2.00;;;;;28.81;35.51;101532.53;5026439;28;47669;-79
2022/07/26 14:26:14;;;;;;;;;2.00;2.00;;;;;28.80;35.63;101530.84;5020129;28;46004;-82
2022/07/26 14:28:40;;;;;;;;;2.00;2.00;;;;;28.83;35.61;101532.38;5024890;28;46913;-83
2022/07/26 14:31:05;;;;;;;;;1.33;1.33;;;;;28.84;35.12;101531.31;5029108;28;47023;-88
2022/07/26 14:33:30;;;;;;;;;2.67;2.67;;;;;28.83;35.18;101532.38;5027766;28;46422;-89
2022/07/26 14:35:56;;;;;;;;;4.33;3.00;;;;;28.85;34.80;101524.84;5026838;28;45709;-88
2022/07/26 14:38:21;;;;;;;;;2.00;2.00;;;;;28.85;35.58;101527.59;5009648;28;46207;-87
2022/07/26 14:40:47;;;;;;;;;2.00;2.00;;;;;28.85;35.60;101528.41;5026984;28;46310;-83
2022/07/26 14:43:12;;;;;;;;;3.67;3.00;;;;;28.88;35.55;101533.53;5024738;28;45741;-84
2022/07/26 14:45:37;;;;;;;;;2.00;2.00;;;;;28.93;35.68;101539.31;5030078;28;45502;-84
2022/07/26 14:48:03;;;;;;;;;3.00;3.00;;;;;29.02;36.24;101536.50;5026415;28;45892;-90
2022/07/26 16:46:58;;;;;;;;;5.33;4.00;;;;;24.70;41.05;101491.47;5062403;28;45444;-82
2022/07/26 16:49:23;;;;;;;;;3.67;3.67;;;;;24.79;41.17;101486.94;5041363;28;45740;-76
2022/07/26 16:51:48;;;;;;;;;3.00;3.00;;;;;24.94;40.89;101482.69;5042823;28;45336;-77
2022/07/26 16:54:14;;;;;;;;;3.67;3.67;;;;;25.13;40.83;101478.88;5048364;28;45431;-80
2022/07/26 16:56:39;;;;;;;;;2.67;2.67;;;;;25.35;40.25;101479.34;5050052;28;45950;-81
2022/07/26 16:59:04;;;;;;;;;4.00;3.00;;;;;25.58;40.24;101483.34;5050887;28;45772;-82
2022/07/26 17:01:30;;;;;;;;;3.00;3.00;;;;;25.81;39.63;101474.56;5049330;28;46768;-82
2022/07/26 17:03:55;;;;;;;;;2.00;2.00;;;;;26.05;38.82;101474.63;5050568;28;45478;-87
2022/07/26 17:06:21;;;;;;;;;2.33;2.33;;;;;26.27;38.75;101477.72;5049824;28;45972;-87
2022/07/26 17:08:46;;;;;;;;;3.00;3.00;;;;;26.44;38.10;101480.44;5049669;28;45397;-85
2022/07/26 17:11:11;;;;;;;;;4.67;3.00;;;;;26.62;37.74;101477.56;5048411;28;45515;-84
2022/07/26 17:13:37;;;;;;;;;3.00;3.00;;;;;26.80;37.79;101482.78;5050394;28;45408;-86
2022/07/26 17:16:02;;;;;;;;;3.00;3.00;;;;;26.95;37.30;101471.22;5051520;28;45284;-91
